sensor_id;sensor_type;location;lat;lon;timestamp;P1;durP1;ratioP1;P2;durP2;ratioP2
16171;SDS011;8192;53.596;10.166;2023-02-24T00:01:54;2.77;;;0.47;;
16171;SDS011;8192;53.596;10.166;2023-02-24T00:04:27;0.13;;;0.13;;
16171;SDS011;8192;53.596;10.166;2023-02-24T00:06:55;0.00;;;0.00;;
16171;SDS011;8192;53.596;10.166;2023-02-24T00:09:22;0.33;;;0.00;;
16171;SDS011;8192;53.596;10.166;2023-02-24T00:11:52;8.00;;;0.43;;
16171;SDS011;8192;53.596;10.166;2023-02-24T00:14:21;0.30;;;0.13;;
16171;SDS011;8192;53.596;10.166;2023-02-24T00:16:50;1.27;;;0.43;;
16171;SDS011;8192;53.596;10.166;2023-02-24T00:19:18;1.20;;;0.50;;
16171;SDS011;8192;53.596;10.166;2023-02-24T00:21:49;4.97;;;0.37;;
16171;SDS011;8192;53.596;10.166;2023-02-24T00:24:18;0.67;;;0.20;;
16171;SDS011;8192;53.596;10.166;2023-02-24T00:26:45;0.17;;;0.10;;
16171;SDS011;8192;53.596;10.166;2023-02-24T00:29:18;3.00;;;0.83;;
16171;SDS011;8192;53.596;10.166;2023-02-24T00:31:45;2.77;;;0.20;;
16171;SDS011;8192;53.596;10.166;2023-02-24T00:34:20;0.00;;;0.00;;
16171;SDS011;8192;53.596;10.166;2023-02-24T00:36:49;0.00;;;0.00;;
16171;SDS011;8192;53.596;10.166;2023-02-24T00:39:16;0.40;;;0.23;;
16171;SDS011;8192;53.596;10.166;2023-02-24T00:41:43;0.73;;;0.23;;
16171;SDS011;8192;53.596;10.166;2023-02-24T00:44:11;0.00;;;0.00;;
16171;SDS011;8192;53.596;10.166;2023-02-24T00:46:40;0.40;;;0.20;;
16171;SDS011;8192;53.596;10.166;2023-02-24T00:49:10;0.63;;;0.30;;
16171;SDS011;8192;53.596;10.166;2023-02-24T00:51:41;1.10;;;0.27;;
16171;SDS011;8192;53.596;10.166;2023-02-24T00:54:11;1.40;;;0.40;;
16171;SDS011;8192;53.596;10.166;2023-02-24T00:56:39;6.77;;;0.47;;
16171;SDS011;8192;53.596;10.166;2023-02-24T00:59:06;4.90;;;0.50;;
16171;SDS011;8192;53.596;10.166;2023-02-24T01:01:35;1.10;;;0.50;;
16171;SDS011;8192;53.596;10.166;2023-02-24T01:04:03;0.77;;;0.07;;
16171;SDS011;8192;53.596;10.166;2023-02-24T01:06:35;3.13;;;0.20;;
16171;SDS011;8192;53.596;10.166;2023-02-24T01:09:04;0.13;;;0.10;;
16171;SDS011;8192;53.596;10.166;2023-02-24T01:11:37;0.57;;;0.57;;
16171;SDS011;8192;53.596;10.166;2023-02-24T01:14:23;2.63;;;0.73;;
16171;SDS011;8192;53.596;10.166;2023-02-24T01:16:53;3.50;;;0.20;;
16171;SDS011;8192;53.596;10.166;2023-02-24T01:19:22;2.47;;;0.93;;
16171;SDS011;8192;53.596;10.166;2023-02-24T01:21:55;4.13;;;0.67;;
16171;SDS011;8192;53.596;10.166;2023-02-24T01:24:23;0.30;;;0.20;;
16171;SDS011;8192;53.596;10.166;2023-02-24T01:26:51;4.90;;;0.77;;
16171;SDS011;8192;53.596;10.166;2023-02-24T01:29:18;3.37;;;0.80;;
16171;SDS011;8192;53.596;10.166;2023-02-24T01:31:46;0.77;;;0.10;;
16171;SDS011;8192;53.596;10.166;2023-02-24T01:34:14;6.07;;;1.50;;
16171;SDS011;8192;53.596;10.166;2023-02-24T01:36:42;0.30;;;0.30;;
16171;SDS011;8192;53.596;10.166;2023-02-24T01:39:09;0.10;;;0.10;;
16171;SDS011;8192;53.596;10.166;2023-02-24T01:41:38;2.00;;;0.67;;
16171;SDS011;8192;53.596;10.166;2023-02-24T01:47:13;5.10;;;2.70;;
16171;SDS011;8192;53.596;10.166;2023-02-24T01:49:44;1.33;;;0.60;;
16171;SDS011;8192;53.596;10.166;2023-02-24T01:52:15;2.00;;;0.77;;
16171;SDS011;8192;53.596;10.166;2023-02-24T01:54:46;0.03;;;0.03;;
16171;SDS011;8192;53.596;10.166;2023-02-24T01:57:19;0.30;;;0.30;;
16171;SDS011;8192;53.596;10.166;2023-02-24T01:59:48;0.77;;;0.20;;
16171;SDS011;8192;53.596;10.166;2023-02-24T02:02:20;0.00;;;0.00;;
16171;SDS011;8192;53.596;10.166;2023-02-24T02:04:49;3.80;;;0.30;;
16171;SDS011;8192;53.596;10.166;2023-02-24T02:07:21;0.53;;;0.53;;
16171;SDS011;8192;53.596;10.166;2023-02-24T02:09:50;3.77;;;0.53;;
16171;SDS011;8192;53.596;10.166;2023-02-24T02:12:19;0.17;;;0.00;;
16171;SDS011;8192;53.596;10.166;2023-02-24T02:14:47;7.73;;;0.33;;
16171;SDS011;8192;53.596;10.166;2023-02-24T02:17:20;0.30;;;0.30;;
16171;SDS011;8192;53.596;10.166;2023-02-24T02:23:11;3.20;;;0.33;;
16171;SDS011;8192;53.596;10.166;2023-02-24T02:26:08;0.57;;;0.07;;
16171;SDS011;8192;53.596;10.166;2023-02-24T02:31:57;1.63;;;0.70;;
16171;SDS011;8192;53.596;10.166;2023-02-24T02:34:46;0.10;;;0.10;;
16171;SDS011;8192;53.596;10.166;2023-02-24T02:37:20;0.20;;;0.20;;
16171;SDS011;8192;53.596;10.166;2023-02-24T02:39:56;1.60;;;0.83;;
16171;SDS011;8192;53.596;10.166;2023-02-24T02:42:34;0.97;;;0.20;;
16171;SDS011;8192;53.596;10.166;2023-02-24T02:45:08;2.00;;;0.33;;
16171;SDS011;8192;53.596;10.166;2023-02-24T02:47:40;0.30;;;0.23;;
16171;SDS011;8192;53.596;10.166;2023-02-24T02:50:16;0.17;;;0.17;;
16171;SDS011;8192;53.596;10.166;2023-02-24T02:52:48;1.13;;;0.23;;
16171;SDS011;8192;53.596;10.166;2023-02-24T02:55:21;3.57;;;0.90;;
16171;SDS011;8192;53.596;10.166;2023-02-24T02:57:54;3.10;;;0.33;;
16171;SDS011;8192;53.596;10.166;2023-02-24T03:00:25;0.87;;;0.53;;
16171;SDS011;8192;53.596;10.166;2023-02-24T03:02:55;0.70;;;0.33;;
16171;SDS011;8192;53.596;10.166;2023-02-24T03:05:32;0.53;;;0.37;;
16171;SDS011;8192;53.596;10.166;2023-02-24T03:08:03;1.27;;;0.37;;
16171;SDS011;8192;53.596;10.166;2023-02-24T03:10:35;0.30;;;0.30;;
16171;SDS011;8192;53.596;10.166;2023-02-24T03:13:05;2.60;;;0.10;;
16171;SDS011;8192;53.596;10.166;2023-02-24T03:15:35;0.30;;;0.30;;
16171;SDS011;8192;53.596;10.166;2023-02-24T03:18:06;0.60;;;0.20;;
16171;SDS011;8192;53.596;10.166;2023-02-24T03:20:40;3.07;;;0.53;;
16171;SDS011;8192;53.596;10.166;2023-02-24T03:23:12;2.27;;;0.90;;
16171;SDS011;8192;53.596;10.166;2023-02-24T03:25:45;4.10;;;0.40;;
16171;SDS011;8192;53.596;10.166;2023-02-24T03:28:25;1.77;;;0.33;;
16171;SDS011;8192;53.596;10.166;2023-02-24T03:31:00;2.47;;;1.30;;
16171;SDS011;8192;53.596;10.166;2023-02-24T03:33:35;1.23;;;0.23;;
16171;SDS011;8192;53.596;10.166;2023-02-24T03:36:07;0.63;;;0.23;;
16171;SDS011;8192;53.596;10.166;2023-02-24T03:38:38;0.23;;;0.13;;
16171;SDS011;8192;53.596;10.166;2023-02-24T03:41:06;0.53;;;0.27;;
16171;SDS011;8192;53.596;10.166;2023-02-24T03:43:35;0.23;;;0.20;;
16171;SDS011;8192;53.596;10.166;2023-02-24T03:46:06;0.00;;;0.00;;
16171;SDS011;8192;53.596;10.166;2023-02-24T03:48:33;7.53;;;0.83;;
16171;SDS011;8192;53.596;10.166;2023-02-24T03:51:10;7.07;;;0.77;;
16171;SDS011;8192;53.596;10.166;2023-02-24T03:53:43;1.23;;;0.20;;
16171;SDS011;8192;53.596;10.166;2023-02-24T03:59:25;1.57;;;0.20;;
16171;SDS011;8192;53.596;10.166;2023-02-24T04:01:57;0.20;;;0.10;;
16171;SDS011;8192;53.596;10.166;2023-02-24T04:04:31;2.63;;;0.30;;
16171;SDS011;8192;53.596;10.166;2023-02-24T04:07:07;3.53;;;0.50;;
16171;SDS011;8192;53.596;10.166;2023-02-24T04:09:39;3.43;;;0.50;;
16171;SDS011;8192;53.596;10.166;2023-02-24T04:12:13;1.63;;;0.43;;
16171;SDS011;8192;53.596;10.166;2023-02-24T04:14:46;0.30;;;0.20;;
16171;SDS011;8192;53.596;10.166;2023-02-24T04:17:16;0.60;;;0.40;;
16171;SDS011;8192;53.596;10.166;2023-02-24T04:19:48;0.00;;;0.00;;
16171;SDS011;8192;53.596;10.166;2023-02-24T04:22:20;5.77;;;0.50;;
16171;SDS011;8192;53.596;10.166;2023-02-24T04:24:51;3.10;;;0.50;;
16171;SDS011;8192;53.596;10.166;2023-02-24T04:27:20;4.03;;;0.77;;
16171;SDS011;8192;53.596;10.166;2023-02-24T04:29:51;0.77;;;0.40;;
16171;SDS011;8192;53.596;10.166;2023-02-24T04:32:21;1.20;;;0.33;;
16171;SDS011;8192;53.596;10.166;2023-02-24T04:34:51;0.00;;;0.00;;
16171;SDS011;8192;53.596;10.166;2023-02-24T04:37:20;2.30;;;0.67;;
16171;SDS011;8192;53.596;10.166;2023-02-24T04:39:47;0.33;;;0.10;;
16171;SDS011;8192;53.596;10.166;2023-02-24T04:42:15;0.33;;;0.20;;
16171;SDS011;8192;53.596;10.166;2023-02-24T04:44:44;2.47;;;0.20;;
16171;SDS011;8192;53.596;10.166;2023-02-24T04:47:11;2.27;;;0.47;;
16171;SDS011;8192;53.596;10.166;2023-02-24T04:49:50;0.43;;;0.17;;
16171;SDS011;8192;53.596;10.166;2023-02-24T04:52:20;0.93;;;0.47;;
16171;SDS011;8192;53.596;10.166;2023-02-24T04:54:47;1.57;;;0.50;;
16171;SDS011;8192;53.596;10.166;2023-02-24T04:57:14;4.00;;;0.40;;
16171;SDS011;8192;53.596;10.166;2023-02-24T04:59:41;5.87;;;0.63;;
16171;SDS011;8192;53.596;10.166;2023-02-24T05:02:08;0.00;;;0.00;;
16171;SDS011;8192;53.596;10.166;2023-02-24T05:04:37;0.33;;;0.20;;
16171;SDS011;8192;53.596;10.166;2023-02-24T05:07:05;1.43;;;0.10;;
16171;SDS011;8192;53.596;10.166;2023-02-24T05:09:33;0.43;;;0.40;;
16171;SDS011;8192;53.596;10.166;2023-02-24T05:12:00;1.37;;;0.20;;
16171;SDS011;8192;53.596;10.166;2023-02-24T05:14:29;5.03;;;0.40;;
16171;SDS011;8192;53.596;10.166;2023-02-24T05:16:56;0.57;;;0.30;;
16171;SDS011;8192;53.596;10.166;2023-02-24T05:19:24;1.80;;;0.77;;
16171;SDS011;8192;53.596;10.166;2023-02-24T05:22:09;3.30;;;0.33;;
16171;SDS011;8192;53.596;10.166;2023-02-24T05:24:39;1.43;;;0.47;;
16171;SDS011;8192;53.596;10.166;2023-02-24T05:27:06;0.73;;;0.30;;
16171;SDS011;8192;53.596;10.166;2023-02-24T05:29:34;0.53;;;0.23;;
16171;SDS011;8192;53.596;10.166;2023-02-24T05:32:02;1.83;;;0.33;;
16171;SDS011;8192;53.596;10.166;2023-02-24T05:34:30;3.20;;;0.30;;
16171;SDS011;8192;53.596;10.166;2023-02-24T05:36:59;0.00;;;0.00;;
16171;SDS011;8192;53.596;10.166;2023-02-24T05:39:34;1.97;;;0.87;;
16171;SDS011;8192;53.596;10.166;2023-02-24T05:42:03;0.00;;;0.00;;
16171;SDS011;8192;53.596;10.166;2023-02-24T05:44:31;0.07;;;0.03;;
16171;SDS011;8192;53.596;10.166;2023-02-24T05:46:59;0.40;;;0.23;;
16171;SDS011;8192;53.596;10.166;2023-02-24T05:49:29;4.33;;;0.93;;
16171;SDS011;8192;53.596;10.166;2023-02-24T05:51:58;0.10;;;0.00;;
16171;SDS011;8192;53.596;10.166;2023-02-24T05:54:33;5.53;;;0.50;;
16171;SDS011;8192;53.596;10.166;2023-02-24T05:57:03;2.47;;;0.90;;
16171;SDS011;8192;53.596;10.166;2023-02-24T05:59:32;0.00;;;0.00;;
16171;SDS011;8192;53.596;10.166;2023-02-24T06:02:00;0.10;;;0.10;;
16171;SDS011;8192;53.596;10.166;2023-02-24T06:04:31;0.50;;;0.40;;
16171;SDS011;8192;53.596;10.166;2023-02-24T06:07:05;5.03;;;0.70;;
16171;SDS011;8192;53.596;10.166;2023-02-24T06:09:37;3.80;;;0.43;;
16171;SDS011;8192;53.596;10.166;2023-02-24T06:12:10;0.20;;;0.20;;
16171;SDS011;8192;53.596;10.166;2023-02-24T06:14:38;0.77;;;0.50;;
16171;SDS011;8192;53.596;10.166;2023-02-24T06:17:06;7.70;;;0.50;;
16171;SDS011;8192;53.596;10.166;2023-02-24T06:19:33;2.77;;;0.10;;
16171;SDS011;8192;53.596;10.166;2023-02-24T06:22:00;0.57;;;0.23;;
16171;SDS011;8192;53.596;10.166;2023-02-24T06:24:28;9.07;;;0.80;;
16171;SDS011;8192;53.596;10.166;2023-02-24T06:26:57;4.47;;;0.73;;
16171;SDS011;8192;53.596;10.166;2023-02-24T06:29:28;6.50;;;0.93;;
16171;SDS011;8192;53.596;10.166;2023-02-24T06:31:56;0.73;;;0.50;;
16171;SDS011;8192;53.596;10.166;2023-02-24T06:34:23;6.60;;;1.10;;
16171;SDS011;8192;53.596;10.166;2023-02-24T06:36:51;3.37;;;1.00;;
16171;SDS011;8192;53.596;10.166;2023-02-24T06:39:18;1.77;;;0.50;;
16171;SDS011;8192;53.596;10.166;2023-02-24T06:41:47;2.67;;;0.83;;
16171;SDS011;8192;53.596;10.166;2023-02-24T06:44:17;8.70;;;0.80;;
16171;SDS011;8192;53.596;10.166;2023-02-24T06:46:45;0.20;;;0.20;;
16171;SDS011;8192;53.596;10.166;2023-02-24T06:49:14;3.23;;;0.70;;
16171;SDS011;8192;53.596;10.166;2023-02-24T06:51:43;7.70;;;0.60;;
16171;SDS011;8192;53.596;10.166;2023-02-24T06:54:10;1.07;;;0.20;;
16171;SDS011;8192;53.596;10.166;2023-02-24T06:56:37;2.40;;;1.10;;
16171;SDS011;8192;53.596;10.166;2023-02-24T06:59:05;4.17;;;1.27;;
16171;SDS011;8192;53.596;10.166;2023-02-24T07:01:35;6.83;;;0.83;;
16171;SDS011;8192;53.596;10.166;2023-02-24T07:04:11;10.10;;;2.30;;
16171;SDS011;8192;53.596;10.166;2023-02-24T07:07:03;3.93;;;1.17;;
16171;SDS011;8192;53.596;10.166;2023-02-24T07:09:50;6.53;;;0.83;;
16171;SDS011;8192;53.596;10.166;2023-02-24T07:12:18;1.93;;;1.20;;
16171;SDS011;8192;53.596;10.166;2023-02-24T07:14:45;10.77;;;2.30;;
16171;SDS011;8192;53.596;10.166;2023-02-24T07:20:38;2.60;;;1.43;;
16171;SDS011;8192;53.596;10.166;2023-02-24T07:23:07;1.07;;;0.50;;
16171;SDS011;8192;53.596;10.166;2023-02-24T07:25:35;2.87;;;0.53;;
16171;SDS011;8192;53.596;10.166;2023-02-24T07:28:03;4.67;;;1.67;;
16171;SDS011;8192;53.596;10.166;2023-02-24T07:30:31;6.53;;;1.70;;
16171;SDS011;8192;53.596;10.166;2023-02-24T07:33:00;2.17;;;1.70;;
16171;SDS011;8192;53.596;10.166;2023-02-24T07:35:29;2.20;;;1.23;;
16171;SDS011;8192;53.596;10.166;2023-02-24T07:37:58;1.87;;;1.20;;
16171;SDS011;8192;53.596;10.166;2023-02-24T07:40:29;1.67;;;1.20;;
16171;SDS011;8192;53.596;10.166;2023-02-24T07:42:57;3.80;;;0.70;;
16171;SDS011;8192;53.596;10.166;2023-02-24T07:48:47;4.93;;;1.10;;
16171;SDS011;8192;53.596;10.166;2023-02-24T07:51:16;11.07;;;1.40;;
16171;SDS011;8192;53.596;10.166;2023-02-24T07:53:48;4.43;;;1.57;;
16171;SDS011;8192;53.596;10.166;2023-02-24T07:56:17;1.57;;;0.80;;
16171;SDS011;8192;53.596;10.166;2023-02-24T07:58:51;2.77;;;1.40;;
16171;SDS011;8192;53.596;10.166;2023-02-24T08:01:23;3.57;;;1.47;;
16171;SDS011;8192;53.596;10.166;2023-02-24T08:03:53;5.97;;;2.03;;
16171;SDS011;8192;53.596;10.166;2023-02-24T08:06:21;1.97;;;1.60;;
16171;SDS011;8192;53.596;10.166;2023-02-24T08:08:58;4.00;;;1.83;;
16171;SDS011;8192;53.596;10.166;2023-02-24T08:11:41;5.97;;;2.17;;
16171;SDS011;8192;53.596;10.166;2023-02-24T08:14:10;4.63;;;2.87;;
16171;SDS011;8192;53.596;10.166;2023-02-24T08:16:40;3.70;;;2.17;;
16171;SDS011;8192;53.596;10.166;2023-02-24T08:25:46;3.73;;;2.27;;
16171;SDS011;8192;53.596;10.166;2023-02-24T08:28:13;8.60;;;3.07;;
16171;SDS011;8192;53.596;10.166;2023-02-24T08:30:40;3.27;;;1.57;;
16171;SDS011;8192;53.596;10.166;2023-02-24T08:33:10;1.33;;;0.63;;
16171;SDS011;8192;53.596;10.166;2023-02-24T08:35:41;4.77;;;2.43;;
16171;SDS011;8192;53.596;10.166;2023-02-24T08:38:09;7.37;;;2.97;;
16171;SDS011;8192;53.596;10.166;2023-02-24T08:40:40;12.90;;;4.37;;
16171;SDS011;8192;53.596;10.166;2023-02-24T08:43:38;3.17;;;1.83;;
16171;SDS011;8192;53.596;10.166;2023-02-24T08:46:13;2.13;;;0.97;;
16171;SDS011;8192;53.596;10.166;2023-02-24T08:48:44;3.03;;;1.50;;
16171;SDS011;8192;53.596;10.166;2023-02-24T08:51:13;5.33;;;2.93;;
16171;SDS011;8192;53.596;10.166;2023-02-24T08:56:55;8.00;;;3.13;;
16171;SDS011;8192;53.596;10.166;2023-02-24T09:02:46;7.90;;;2.17;;
16171;SDS011;8192;53.596;10.166;2023-02-24T09:05:14;3.87;;;1.90;;
16171;SDS011;8192;53.596;10.166;2023-02-24T09:07:41;6.60;;;3.43;;
16171;SDS011;8192;53.596;10.166;2023-02-24T09:16:52;6.17;;;2.97;;
16171;SDS011;8192;53.596;10.166;2023-02-24T09:19:37;4.00;;;1.80;;
16171;SDS011;8192;53.596;10.166;2023-02-24T09:25:47;4.70;;;2.53;;
16171;SDS011;8192;53.596;10.166;2023-02-24T09:28:17;2.33;;;1.40;;
16171;SDS011;8192;53.596;10.166;2023-02-24T09:30:50;9.43;;;2.70;;
16171;SDS011;8192;53.596;10.166;2023-02-24T09:33:19;2.23;;;0.90;;
16171;SDS011;8192;53.596;10.166;2023-02-24T09:39:12;6.13;;;3.13;;
16171;SDS011;8192;53.596;10.166;2023-02-24T09:41:41;7.40;;;2.87;;
16171;SDS011;8192;53.596;10.166;2023-02-24T09:44:44;2.17;;;1.17;;
16171;SDS011;8192;53.596;10.166;2023-02-24T09:47:48;4.80;;;2.17;;
16171;SDS011;8192;53.596;10.166;2023-02-24T09:50:23;4.33;;;2.63;;
16171;SDS011;8192;53.596;10.166;2023-02-24T09:53:10;0.00;;;0.00;;
16171;SDS011;8192;53.596;10.166;2023-02-24T09:55:47;0.00;;;0.00;;
16171;SDS011;8192;53.596;10.166;2023-02-24T09:58:30;0.00;;;0.00;;
16171;SDS011;8192;53.596;10.166;2023-02-24T10:01:07;0.00;;;0.00;;
16171;SDS011;8192;53.596;10.166;2023-02-24T10:03:49;0.00;;;0.00;;
16171;SDS011;8192;53.596;10.166;2023-02-24T10:06:28;0.00;;;0.00;;
16171;SDS011;8192;53.596;10.166;2023-02-24T10:09:02;0.00;;;0.00;;
16171;SDS011;8192;53.596;10.166;2023-02-24T10:11:40;0.00;;;0.00;;
16171;SDS011;8192;53.596;10.166;2023-02-24T10:14:18;0.00;;;0.00;;
16171;SDS011;8192;53.596;10.166;2023-02-24T10:20:14;0.00;;;0.00;;
16171;SDS011;8192;53.596;10.166;2023-02-24T10:22:56;0.00;;;0.00;;
16171;SDS011;8192;53.596;10.166;2023-02-24T10:28:22;0.00;;;0.00;;
16171;SDS011;8192;53.596;10.166;2023-02-24T10:31:01;0.00;;;0.00;;
16171;SDS011;8192;53.596;10.166;2023-02-24T10:33:44;0.00;;;0.00;;
16171;SDS011;8192;53.596;10.166;2023-02-24T10:39:25;0.00;;;0.00;;
16171;SDS011;8192;53.596;10.166;2023-02-24T10:41:58;0.00;;;0.00;;
16171;SDS011;8192;53.596;10.166;2023-02-24T10:47:17;0.00;;;0.00;;
16171;SDS011;8192;53.596;10.166;2023-02-24T10:49:55;0.00;;;0.00;;
16171;SDS011;8192;53.596;10.166;2023-02-24T10:52:28;0.00;;;0.00;;
16171;SDS011;8192;53.596;10.166;2023-02-24T10:55:36;0.00;;;0.00;;
16171;SDS011;8192;53.596;10.166;2023-02-24T10:58:20;0.00;;;0.00;;
16171;SDS011;8192;53.596;10.166;2023-02-24T11:01:05;0.00;;;0.00;;
16171;SDS011;8192;53.596;10.166;2023-02-24T11:03:37;0.00;;;0.00;;
16171;SDS011;8192;53.596;10.166;2023-02-24T11:06:16;0.00;;;0.00;;
16171;SDS011;8192;53.596;10.166;2023-02-24T11:09:12;0.00;;;0.00;;
16171;SDS011;8192;53.596;10.166;2023-02-24T11:12:01;0.00;;;0.00;;
16171;SDS011;8192;53.596;10.166;2023-02-24T11:14:49;0.00;;;0.00;;
16171;SDS011;8192;53.596;10.166;2023-02-24T11:17:45;0.00;;;0.00;;
16171;SDS011;8192;53.596;10.166;2023-02-24T11:20:18;0.00;;;0.00;;
16171;SDS011;8192;53.596;10.166;2023-02-24T11:22:51;0.00;;;0.00;;
16171;SDS011;8192;53.596;10.166;2023-02-24T11:25:22;0.00;;;0.00;;
16171;SDS011;8192;53.596;10.166;2023-02-24T11:27:52;0.00;;;0.00;;
16171;SDS011;8192;53.596;10.166;2023-02-24T11:30:23;0.00;;;0.00;;
16171;SDS011;8192;53.596;10.166;2023-02-24T11:33:09;0.00;;;0.00;;
16171;SDS011;8192;53.596;10.166;2023-02-24T11:35:50;0.00;;;0.00;;
16171;SDS011;8192;53.596;10.166;2023-02-24T11:38:29;0.00;;;0.00;;
16171;SDS011;8192;53.596;10.166;2023-02-24T11:41:05;0.00;;;0.00;;
16171;SDS011;8192;53.596;10.166;2023-02-24T11:43:37;0.00;;;0.00;;
16171;SDS011;8192;53.596;10.166;2023-02-24T11:46:09;0.00;;;0.00;;
16171;SDS011;8192;53.596;10.166;2023-02-24T11:48:42;0.00;;;0.00;;
16171;SDS011;8192;53.596;10.166;2023-02-24T11:51:13;0.00;;;0.00;;
16171;SDS011;8192;53.596;10.166;2023-02-24T11:53:44;0.00;;;0.00;;
16171;SDS011;8192;53.596;10.166;2023-02-24T11:56:24;0.00;;;0.00;;
16171;SDS011;8192;53.596;10.166;2023-02-24T11:58:56;0.00;;;0.00;;
16171;SDS011;8192;53.596;10.166;2023-02-24T12:01:28;0.00;;;0.00;;
16171;SDS011;8192;53.596;10.166;2023-02-24T12:04:08;0.00;;;0.00;;
16171;SDS011;8192;53.596;10.166;2023-02-24T12:06:45;0.00;;;0.00;;
16171;SDS011;8192;53.596;10.166;2023-02-24T12:09:25;0.00;;;0.00;;
16171;SDS011;8192;53.596;10.166;2023-02-24T12:11:57;0.00;;;0.00;;
16171;SDS011;8192;53.596;10.166;2023-02-24T12:14:31;0.00;;;0.00;;
16171;SDS011;8192;53.596;10.166;2023-02-24T12:17:03;0.00;;;0.00;;
16171;SDS011;8192;53.596;10.166;2023-02-24T12:19:45;0.00;;;0.00;;
16171;SDS011;8192;53.596;10.166;2023-02-24T12:22:18;0.00;;;0.00;;
16171;SDS011;8192;53.596;10.166;2023-02-24T12:24:50;0.00;;;0.00;;
16171;SDS011;8192;53.596;10.166;2023-02-24T12:27:24;0.00;;;0.00;;
16171;SDS011;8192;53.596;10.166;2023-02-24T12:30:12;0.00;;;0.00;;
16171;SDS011;8192;53.596;10.166;2023-02-24T12:33:05;0.00;;;0.00;;
16171;SDS011;8192;53.596;10.166;2023-02-24T12:35:46;0.00;;;0.00;;
16171;SDS011;8192;53.596;10.166;2023-02-24T12:38:30;0.00;;;0.00;;
16171;SDS011;8192;53.596;10.166;2023-02-24T12:41:15;0.00;;;0.00;;
16171;SDS011;8192;53.596;10.166;2023-02-24T12:43:53;0.00;;;0.00;;
16171;SDS011;8192;53.596;10.166;2023-02-24T12:46:26;0.00;;;0.00;;
16171;SDS011;8192;53.596;10.166;2023-02-24T12:49:04;0.00;;;0.00;;
16171;SDS011;8192;53.596;10.166;2023-02-24T12:51:47;0.00;;;0.00;;
16171;SDS011;8192;53.596;10.166;2023-02-24T12:54:27;0.00;;;0.00;;
16171;SDS011;8192;53.596;10.166;2023-02-24T12:57:00;0.00;;;0.00;;
16171;SDS011;8192;53.596;10.166;2023-02-24T12:59:39;0.00;;;0.00;;
16171;SDS011;8192;53.596;10.166;2023-02-24T13:02:10;0.00;;;0.00;;
16171;SDS011;8192;53.596;10.166;2023-02-24T13:04:48;0.00;;;0.00;;
16171;SDS011;8192;53.596;10.166;2023-02-24T13:07:29;0.00;;;0.00;;
16171;SDS011;8192;53.596;10.166;2023-02-24T13:10:15;0.00;;;0.00;;
16171;SDS011;8192;53.596;10.166;2023-02-24T13:12:50;0.00;;;0.00;;
16171;SDS011;8192;53.596;10.166;2023-02-24T13:15:22;0.00;;;0.00;;
16171;SDS011;8192;53.596;10.166;2023-02-24T13:17:51;0.00;;;0.00;;
16171;SDS011;8192;53.596;10.166;2023-02-24T13:20:26;0.00;;;0.00;;
16171;SDS011;8192;53.596;10.166;2023-02-24T13:22:58;0.00;;;0.00;;
16171;SDS011;8192;53.596;10.166;2023-02-24T13:25:29;0.00;;;0.00;;
16171;SDS011;8192;53.596;10.166;2023-02-24T13:27:59;0.00;;;0.00;;
16171;SDS011;8192;53.596;10.166;2023-02-24T13:30:31;0.00;;;0.00;;
16171;SDS011;8192;53.596;10.166;2023-02-24T13:33:03;0.00;;;0.00;;
16171;SDS011;8192;53.596;10.166;2023-02-24T13:35:35;0.00;;;0.00;;
16171;SDS011;8192;53.596;10.166;2023-02-24T13:38:20;0.00;;;0.00;;
16171;SDS011;8192;53.596;10.166;2023-02-24T13:40:51;0.00;;;0.00;;
16171;SDS011;8192;53.596;10.166;2023-02-24T13:43:22;0.00;;;0.00;;
16171;SDS011;8192;53.596;10.166;2023-02-24T13:45:53;0.00;;;0.00;;
16171;SDS011;8192;53.596;10.166;2023-02-24T13:51:26;0.00;;;0.00;;
16171;SDS011;8192;53.596;10.166;2023-02-24T13:54:17;0.00;;;0.00;;
16171;SDS011;8192;53.596;10.166;2023-02-24T13:57:27;0.00;;;0.00;;
16171;SDS011;8192;53.596;10.166;2023-02-24T14:00:10;0.00;;;0.00;;
16171;SDS011;8192;53.596;10.166;2023-02-24T14:02:49;0.00;;;0.00;;
16171;SDS011;8192;53.596;10.166;2023-02-24T14:05:18;0.00;;;0.00;;
16171;SDS011;8192;53.596;10.166;2023-02-24T14:07:49;0.00;;;0.00;;
16171;SDS011;8192;53.596;10.166;2023-02-24T14:10:20;0.00;;;0.00;;
16171;SDS011;8192;53.596;10.166;2023-02-24T14:12:50;0.00;;;0.00;;
16171;SDS011;8192;53.596;10.166;2023-02-24T14:15:31;0.00;;;0.00;;
16171;SDS011;8192;53.596;10.166;2023-02-24T14:18:00;0.00;;;0.00;;
16171;SDS011;8192;53.596;10.166;2023-02-24T14:20:30;0.00;;;0.00;;
16171;SDS011;8192;53.596;10.166;2023-02-24T14:22:59;0.00;;;0.00;;
16171;SDS011;8192;53.596;10.166;2023-02-24T14:25:36;0.00;;;0.00;;
16171;SDS011;8192;53.596;10.166;2023-02-24T14:28:04;0.00;;;0.00;;
16171;SDS011;8192;53.596;10.166;2023-02-24T14:30:32;0.00;;;0.00;;
16171;SDS011;8192;53.596;10.166;2023-02-24T14:33:00;0.00;;;0.00;;
16171;SDS011;8192;53.596;10.166;2023-02-24T14:35:31;0.00;;;0.00;;
16171;SDS011;8192;53.596;10.166;2023-02-24T14:38:00;0.00;;;0.00;;
16171;SDS011;8192;53.596;10.166;2023-02-24T14:40:30;0.00;;;0.00;;
16171;SDS011;8192;53.596;10.166;2023-02-24T14:42:59;0.00;;;0.00;;
16171;SDS011;8192;53.596;10.166;2023-02-24T14:45:28;0.00;;;0.00;;
16171;SDS011;8192;53.596;10.166;2023-02-24T14:48:00;0.00;;;0.00;;
16171;SDS011;8192;53.596;10.166;2023-02-24T14:50:28;0.00;;;0.00;;
16171;SDS011;8192;53.596;10.166;2023-02-24T14:52:59;0.00;;;0.00;;
16171;SDS011;8192;53.596;10.166;2023-02-24T14:55:31;0.00;;;0.00;;
16171;SDS011;8192;53.596;10.166;2023-02-24T14:58:04;0.00;;;0.00;;
16171;SDS011;8192;53.596;10.166;2023-02-24T15:00:38;0.00;;;0.00;;
16171;SDS011;8192;53.596;10.166;2023-02-24T15:03:11;0.00;;;0.00;;
16171;SDS011;8192;53.596;10.166;2023-02-24T15:05:43;0.00;;;0.00;;
16171;SDS011;8192;53.596;10.166;2023-02-24T15:08:21;0.00;;;0.00;;
16171;SDS011;8192;53.596;10.166;2023-02-24T15:10:58;0.00;;;0.00;;
16171;SDS011;8192;53.596;10.166;2023-02-24T15:13:38;0.00;;;0.00;;
16171;SDS011;8192;53.596;10.166;2023-02-24T15:16:09;0.00;;;0.00;;
16171;SDS011;8192;53.596;10.166;2023-02-24T15:18:42;0.00;;;0.00;;
16171;SDS011;8192;53.596;10.166;2023-02-24T15:21:17;0.00;;;0.00;;
16171;SDS011;8192;53.596;10.166;2023-02-24T15:23:46;0.00;;;0.00;;
16171;SDS011;8192;53.596;10.166;2023-02-24T15:26:27;0.00;;;0.00;;
16171;SDS011;8192;53.596;10.166;2023-02-24T15:29:02;0.00;;;0.00;;
16171;SDS011;8192;53.596;10.166;2023-02-24T15:31:45;0.00;;;0.00;;
16171;SDS011;8192;53.596;10.166;2023-02-24T15:34:13;0.00;;;0.00;;
16171;SDS011;8192;53.596;10.166;2023-02-24T15:36:54;0.00;;;0.00;;
16171;SDS011;8192;53.596;10.166;2023-02-24T15:39:26;0.00;;;0.00;;
16171;SDS011;8192;53.596;10.166;2023-02-24T15:42:05;0.00;;;0.00;;
16171;SDS011;8192;53.596;10.166;2023-02-24T15:44:35;0.00;;;0.00;;
16171;SDS011;8192;53.596;10.166;2023-02-24T15:47:11;0.00;;;0.00;;
16171;SDS011;8192;53.596;10.166;2023-02-24T15:49:44;0.00;;;0.00;;
16171;SDS011;8192;53.596;10.166;2023-02-24T15:52:12;0.00;;;0.00;;
16171;SDS011;8192;53.596;10.166;2023-02-24T15:54:39;0.00;;;0.00;;
16171;SDS011;8192;53.596;10.166;2023-02-24T15:57:08;0.00;;;0.00;;
16171;SDS011;8192;53.596;10.166;2023-02-24T15:59:38;0.00;;;0.00;;
16171;SDS011;8192;53.596;10.166;2023-02-24T16:02:09;0.00;;;0.00;;
16171;SDS011;8192;53.596;10.166;2023-02-24T16:04:38;0.00;;;0.00;;
16171;SDS011;8192;53.596;10.166;2023-02-24T16:07:18;0.00;;;0.00;;
16171;SDS011;8192;53.596;10.166;2023-02-24T16:09:51;0.00;;;0.00;;
16171;SDS011;8192;53.596;10.166;2023-02-24T16:12:38;0.00;;;0.00;;
16171;SDS011;8192;53.596;10.166;2023-02-24T16:15:18;0.00;;;0.00;;
16171;SDS011;8192;53.596;10.166;2023-02-24T16:17:57;0.00;;;0.00;;
16171;SDS011;8192;53.596;10.166;2023-02-24T16:20:27;0.00;;;0.00;;
16171;SDS011;8192;53.596;10.166;2023-02-24T16:22:58;0.00;;;0.00;;
16171;SDS011;8192;53.596;10.166;2023-02-24T16:25:28;0.00;;;0.00;;